Time;durP1;ratioP1;P1;durP2;ratioP2;P2;SDS_P1;SDS_P2;PMS_P1;PMS_P2;Temp;Humidity;BMP_temperature;BMP_pressure;BME280_temperature;BME280_humidity;BME280_pressure;Samples;Min_cycle;Max_cycle;Signal;HPM_P1;HPM_P2
2022/03/23 00:00:46;;;;;;;13.27;5.07;;;;;;;6.76;47.82;103092.22;2098706;28;20181;-71
2022/03/23 00:01:47;;;;;;;13.02;6.28;;;;;;;5.90;48.33;102965.16;2098627;28;20178;-71
2022/03/23 00:02:47;;;;;;;17.17;5.63;;;;;;;6.59;48.56;103062.19;2098215;28;20648;-71
2022/03/23 00:03:48;;;;;;;16.43;5.70;;;;;;;5.73;48.17;102950.78;2097997;28;20277;-72
2022/03/23 00:04:49;;;;;;;14.88;5.50;;;;;;;6.68;47.72;103090.44;2098644;28;20180;-71
2022/03/23 00:05:49;;;;;;;15.17;5.87;;;;;;;6.62;47.90;103089.03;2098655;28;20218;-72
2022/03/23 00:06:50;;;;;;;16.10;5.63;;;;;;;6.56;48.09;103092.38;2098689;28;20173;-72
2022/03/23 00:07:51;;;;;;;15.80;5.57;;;;;;;6.43;48.06;103071.50;2098103;28;20641;-71
2022/03/23 00:08:51;;;;;;;17.00;6.33;;;;;;;5.91;48.09;103021.03;2098607;28;20208;-72
2022/03/23 00:09:52;;;;;;;14.50;6.50;;;;;;;5.69;48.13;102977.41;2098500;28;20651;-71
2022/03/23 00:10:53;;;;;;;15.07;6.07;;;;;;;5.68;48.31;102984.84;2098614;28;20177;-71
2022/03/23 00:11:54;;;;;;;15.27;5.90;;;;;;;6.26;48.39;103086.28;2098514;28;20665;-71
2022/03/23 00:12:57;;;;;;;16.07;6.03;;;;;;;6.10;49.83;103087.34;2098293;28;20181;-71
2022/03/23 00:13:57;;;;;;;19.73;6.53;;;;;;;5.45;50.50;103010.38;2097950;28;20184;-72
2022/03/23 00:14:58;;;;;;;14.23;6.20;;;;;;;5.81;50.55;103091.06;2098609;28;20267;-71
2022/03/23 00:15:58;;;;;;;12.17;5.73;;;;;;;5.74;50.99;103087.25;2098460;28;20179;-71
2022/03/23 00:16:59;;;;;;;13.53;6.43;;;;;;;5.75;51.29;103086.88;2098609;28;20176;-72
2022/03/23 00:18:00;;;;;;;18.87;6.40;;;;;;;5.73;51.55;103078.16;2098129;28;20305;-71
2022/03/23 00:19:00;;;;;;;14.97;6.30;;;;;;;5.69;50.86;103082.75;2098509;28;20172;-71
2022/03/23 00:20:01;;;;;;;15.27;6.70;;;;;;;5.19;51.58;103012.59;2098193;28;20179;-71
2022/03/23 00:21:01;;;;;;;15.47;5.73;;;;;;;5.41;51.86;103046.00;2098494;28;20173;-71
2022/03/23 00:22:03;;;;;;;16.30;6.43;;;;;;;4.44;51.90;102892.88;2098350;28;20544;-71
2022/03/23 00:23:03;;;;;;;16.75;6.22;;;;;;;5.65;51.80;103078.28;2098401;28;20180;-71
2022/03/23 00:24:05;;;;;;;16.40;5.97;;;;;;;5.60;51.89;103064.72;2097679;28;20186;-71
2022/03/23 00:25:08;;;;;;;15.57;6.05;;;;;;;5.59;51.52;103071.38;2098561;28;20173;-72
2022/03/23 00:26:09;;;;;;;17.48;6.45;;;;;;;5.56;51.73;103061.03;2098355;28;20254;-71
2022/03/23 00:27:09;;;;;;;16.50;6.10;;;;;;;5.61;51.10;103078.16;2098724;28;20169;-72
2022/03/23 00:28:10;;;;;;;18.33;7.07;;;;;;;5.11;51.14;102986.78;2098137;28;20600;-71
2022/03/23 00:29:11;;;;;;;17.10;6.20;;;;;;;4.91;50.71;102967.56;2098342;28;20261;-72
2022/03/23 00:30:12;;;;;;;14.70;6.20;;;;;;;5.63;51.63;103067.59;2098369;28;20186;-71
2022/03/23 00:31:12;;;;;;;16.17;6.33;;;;;;;5.57;52.08;103068.16;2098325;28;20169;-71
2022/03/23 00:32:14;;;;;;;18.33;6.80;;;;;;;5.57;52.39;103068.97;2097897;28;20229;-72
2022/03/23 00:33:15;;;;;;;15.27;6.47;;;;;;;4.61;52.50;102920.19;2098483;28;20180;-71
2022/03/23 00:34:16;;;;;;;16.70;6.55;;;;;;;5.36;52.77;103040.72;2097769;28;20257;-71
2022/03/23 00:35:16;;;;;;;16.90;6.53;;;;;;;5.52;53.30;103069.19;2098612;28;20226;-72
2022/03/23 00:36:18;;;;;;;14.77;6.43;;;;;;;5.43;53.00;103051.16;2098311;28;20672;-71
2022/03/23 00:37:19;;;;;;;14.73;6.88;;;;;;;5.48;53.18;103051.75;2098434;28;20175;-72
2022/03/23 00:38:20;;;;;;;16.27;7.53;;;;;;;5.66;52.72;103060.63;2098146;28;20180;-71
2022/03/23 00:39:22;;;;;;;16.27;7.17;;;;;;;5.73;52.52;103061.66;2098180;28;20651;-72
2022/03/23 00:40:23;;;;;;;13.30;6.72;;;;;;;5.76;52.36;103063.75;2098263;28;20169;-72
2022/03/23 00:41:24;;;;;;;15.97;6.90;;;;;;;5.82;51.82;103056.09;2098475;28;20178;-71
2022/03/23 00:42:25;;;;;;;17.00;6.80;;;;;;;5.83;51.11;103061.25;2097682;28;20427;-72
2022/03/23 00:43:25;;;;;;;14.67;6.23;;;;;;;5.80;50.47;103045.41;2098307;28;20229;-72
2022/03/23 00:44:26;;;;;;;14.40;6.67;;;;;;;5.91;49.89;103068.63;2097807;28;20816;-71
2022/03/23 00:45:30;;;;;;;16.33;6.90;;;;;;;5.91;50.12;103065.06;2098300;28;20614;-72
2022/03/23 00:46:31;;;;;;;16.63;7.03;;;;;;;5.94;49.52;103061.63;2098182;28;20580;-72
2022/03/23 00:47:31;;;;;;;17.47;6.40;;;;;;;5.63;49.44;103051.09;2098089;28;20208;-72
2022/03/23 00:48:32;;;;;;;15.53;6.70;;;;;;;5.84;49.96;103065.63;2098199;28;20600;-71
2022/03/23 00:49:32;;;;;;;16.10;6.40;;;;;;;5.81;50.12;103069.06;2098127;28;20203;-71
2022/03/23 00:50:36;;;;;;;15.53;6.57;;;;;;;5.77;49.99;103057.09;2098282;28;20177;-72
2022/03/23 00:51:37;;;;;;;16.55;6.78;;;;;;;5.14;50.38;102977.84;2098334;28;20183;-72
2022/03/23 00:52:37;;;;;;;14.90;6.73;;;;;;;4.75;50.43;102920.72;2096877;28;20275;-71
2022/03/23 00:53:38;;;;;;;16.13;7.80;;;;;;;5.65;51.85;103065.31;2089110;28;20255;-72
2022/03/23 00:54:38;;;;;;;17.53;7.03;;;;;;;5.57;51.11;103054.41;2088858;28;20663;-71
2022/03/23 00:55:42;;;;;;;15.37;6.67;;;;;;;5.52;50.12;103046.34;2097600;28;20693;-72
2022/03/23 00:56:43;;;;;;;14.13;6.90;;;;;;;5.62;50.26;103066.00;2098177;28;20187;-72
2022/03/23 00:57:44;;;;;;;15.43;6.53;;;;;;;5.58;50.73;103069.75;2098028;28;20173;-71
2022/03/23 00:58:44;;;;;;;15.90;7.33;;;;;;;5.54;51.13;103061.38;2098226;28;20566;-72
2022/03/23 00:59:45;;;;;;;21.37;7.43;;;;;;;5.53;51.10;103064.50;2098013;28;20176;-72
2022/03/23 01:00:45;;;;;;;14.80;7.07;;;;;;;5.51;52.22;103059.31;2098139;28;20176;-72
2022/03/23 01:01:46;;;;;;;16.17;6.33;;;;;;;4.08;51.15;102832.31;2098240;28;20282;-71
2022/03/23 01:02:47;;;;;;;15.93;7.50;;;;;;;5.35;51.11;103032.78;2097691;28;20211;-72
2022/03/23 01:03:47;;;;;;;15.60;6.83;;;;;;;5.52;51.39;103060.13;2097621;28;20922;-72
2022/03/23 01:04:48;;;;;;;18.00;7.80;;;;;;;5.48;51.80;103059.22;2098140;28;20354;-71
2022/03/23 01:05:50;;;;;;;18.30;7.77;;;;;;;5.38;52.14;103049.41;2098182;28;20204;-72
2022/03/23 01:06:54;;;;;;;19.38;7.13;;;;;;;5.45;51.58;103059.88;2098118;28;20573;-72
2022/03/23 01:07:55;;;;;;;16.95;6.95;;;;;;;4.42;51.28;102891.63;2096307;28;20207;-72
2022/03/23 01:08:55;;;;;;;16.57;6.57;;;;;;;4.30;50.93;102869.56;2097476;28;20190;-72
2022/03/23 01:09:56;;;;;;;19.37;7.00;;;;;;;5.46;50.92;103054.03;2097861;28;20630;-72
2022/03/23 01:10:56;;;;;;;14.47;6.73;;;;;;;4.99;50.59;102992.25;2098126;28;20174;-72
2022/03/23 01:11:57;;;;;;;16.30;6.47;;;;;;;5.42;50.86;103055.84;2098016;28;20177;-71
2022/03/23 01:12:59;;;;;;;13.33;6.20;;;;;;;5.30;50.70;103038.50;2097649;28;20181;-71
2022/03/23 01:13:59;;;;;;;12.38;5.97;;;;;;;3.89;50.18;102823.75;2097389;28;20554;-72
2022/03/23 01:15:00;;;;;;;13.90;5.83;;;;;;;5.29;50.71;103064.41;2098222;28;20178;-72
2022/03/23 01:16:01;;;;;;;15.77;6.43;;;;;;;5.23;51.33;103049.25;2098001;28;20176;-72
2022/03/23 01:17:01;;;;;;;15.60;6.57;;;;;;;5.24;52.18;103065.41;2098270;28;20215;-72
2022/03/23 01:18:02;;;;;;;15.73;6.57;;;;;;;4.09;52.48;102869.59;2097668;28;20180;-72
2022/03/23 01:19:03;;;;;;;15.98;6.45;;;;;;;4.77;52.15;102976.09;2098206;28;20189;-72
2022/03/23 01:20:06;;;;;;;16.60;6.83;;;;;;;5.19;52.65;103051.06;2097552;28;21009;-71
2022/03/23 01:21:07;;;;;;;18.25;6.85;;;;;;;4.09;52.14;102880.56;2097997;28;20181;-72
2022/03/23 01:22:07;;;;;;;18.50;6.90;;;;;;;5.17;52.89;103051.41;2097522;28;20630;-72
2022/03/23 01:23:09;;;;;;;12.87;6.27;;;;;;;5.11;53.63;103047.25;2098093;28;20264;-72
2022/03/23 01:24:10;;;;;;;16.08;6.85;;;;;;;5.21;52.71;103046.84;2097605;28;20176;-72
2022/03/23 01:25:12;;;;;;;12.98;6.20;;;;;;;5.21;52.85;103035.03;2097350;28;20206;-72
2022/03/23 01:26:12;;;;;;;13.55;6.07;;;;;;;5.21;52.40;103043.28;2097349;28;20612;-71
2022/03/23 01:27:13;;;;;;;13.50;6.13;;;;;;;5.01;52.75;103003.69;2097352;28;20180;-72
2022/03/23 01:28:13;;;;;;;12.40;6.20;;;;;;;4.15;52.71;102894.91;2096816;28;20220;-72
2022/03/23 01:29:14;;;;;;;17.30;6.30;;;;;;;5.25;53.06;103036.78;2098262;28;20203;-72
2022/03/23 01:30:16;;;;;;;11.80;6.40;;;;;;;5.11;52.49;103025.28;2097727;28;20652;-72
2022/03/23 01:31:17;;;;;;;14.80;6.70;;;;;;;5.23;52.77;103043.75;2097902;28;20215;-72
2022/03/23 01:32:18;;;;;;;13.63;6.30;;;;;;;5.25;52.65;103035.97;2097310;28;20174;-72
2022/03/23 01:33:19;;;;;;;13.25;6.13;;;;;;;5.24;52.93;103037.91;2097834;28;20185;-71
2022/03/23 01:34:19;;;;;;;18.10;6.90;;;;;;;5.22;52.61;103040.19;2097326;28;20679;-72
2022/03/23 01:35:20;;;;;;;31.23;9.30;;;;;;;5.21;52.13;103043.28;2097190;28;20183;-72
2022/03/23 01:36:21;;;;;;;17.13;6.90;;;;;;;5.25;51.54;103045.03;2097184;28;20191;-72
2022/03/23 01:37:21;;;;;;;14.20;5.57;;;;;;;4.78;50.23;102968.69;2097855;28;20414;-71
2022/03/23 01:38:22;;;;;;;15.00;5.97;;;;;;;4.63;49.87;102970.09;2097824;28;20192;-71
2022/03/23 01:39:22;;;;;;;16.23;6.47;;;;;;;5.05;51.86;103045.03;2098036;28;20183;-72
2022/03/23 01:40:23;;;;;;;13.93;6.60;;;;;;;5.05;51.41;103051.34;2097565;28;20336;-71
2022/03/23 01:41:24;;;;;;;14.23;6.00;;;;;;;5.01;51.26;103041.34;2098000;28;20183;-72
2022/03/23 01:42:27;;;;;;;14.07;6.15;;;;;;;4.94;51.11;103044.66;2097235;28;20186;-72
2022/03/23 01:43:29;;;;;;;15.60;6.50;;;;;;;4.90;50.68;103040.16;2097692;28;20187;-72
2022/03/23 01:44:29;;;;;;;16.05;6.45;;;;;;;4.35;51.13;102959.97;2096600;28;20183;-72
2022/03/23 01:45:30;;;;;;;14.30;5.90;;;;;;;4.41;50.87;102969.63;2097425;28;20183;-72
2022/03/23 01:46:30;;;;;;;15.20;6.70;;;;;;;4.84;51.55;103044.25;2097717;28;20187;-71
2022/03/23 01:47:31;;;;;;;15.33;6.30;;;;;;;4.78;51.65;103042.84;2097172;28;20215;-72
2022/03/23 01:48:32;;;;;;;12.23;6.07;;;;;;;4.25;52.00;102957.63;2097485;28;20214;-72
2022/03/23 01:49:34;;;;;;;12.87;5.83;;;;;;;4.74;52.22;103045.47;2098049;28;20232;-72
2022/03/23 01:50:36;;;;;;;21.77;6.13;;;;;;;4.69;52.41;103045.66;2097539;28;20178;-72
2022/03/23 01:51:37;;;;;;;15.25;6.30;;;;;;;4.55;52.63;103036.88;2097906;28;20187;-72
2022/03/23 01:52:38;;;;;;;16.67;6.00;;;;;;;4.54;52.59;103032.53;2097192;28;20196;-72
2022/03/23 01:53:39;;;;;;;14.20;5.53;;;;;;;3.96;52.46;102939.22;2097578;28;20559;-72
2022/03/23 01:54:41;;;;;;;12.60;6.10;;;;;;;3.66;52.03;102903.94;2097457;28;20180;-72
2022/03/23 01:55:41;;;;;;;15.35;5.90;;;;;;;4.52;52.35;103044.97;2097716;28;20180;-72
2022/03/23 01:56:42;;;;;;;12.97;5.43;;;;;;;4.42;52.60;103083.81;2097801;28;20180;-72
2022/03/23 01:57:45;;;;;;;14.73;5.60;;;;;;;4.40;51.79;103029.22;2097584;28;20176;-72
2022/03/23 01:58:46;;;;;;;17.52;5.75;;;;;;;4.44;51.72;103040.34;2097727;28;20209;-72
2022/03/23 01:59:47;;;;;;;17.43;5.77;;;;;;;3.30;51.74;102859.75;2097747;28;20189;-72
2022/03/23 02:00:48;;;;;;;12.90;6.00;;;;;;;4.41;52.02;103039.06;2097615;28;20513;-72
2022/03/23 02:01:48;;;;;;;14.17;6.10;;;;;;;4.40;51.61;103045.69;2097659;28;20275;-72
2022/03/23 02:02:49;;;;;;;14.60;5.93;;;;;;;4.36;51.63;103041.22;2097421;28;20167;-72
2022/03/23 02:03:50;;;;;;;17.13;6.13;;;;;;;4.34;52.28;103043.47;2097044;28;20616;-71
2022/03/23 02:04:50;;;;;;;11.43;5.17;;;;;;;3.86;52.27;102974.50;2097723;28;20179;-72
2022/03/23 02:05:51;;;;;;;14.63;5.90;;;;;;;4.36;53.01;103039.25;2097636;28;20304;-72
2022/03/23 02:06:52;;;;;;;13.97;6.00;;;;;;;4.34;53.13;103037.97;2097798;28;20180;-72
2022/03/23 02:07:55;;;;;;;15.18;6.03;;;;;;;4.30;53.57;103037.03;2097045;28;20190;-72
2022/03/23 02:08:56;;;;;;;13.45;5.90;;;;;;;4.25;53.61;103042.72;2097560;28;20725;-72
2022/03/23 02:09:56;;;;;;;14.90;6.13;;;;;;;3.23;53.29;102873.19;2097554;28;20559;-72
2022/03/23 02:10:57;;;;;;;15.10;6.03;;;;;;;4.28;53.66;103040.13;2097513;28;20262;-72
2022/03/23 02:12:01;;;;;;;11.37;6.30;;;;;;;3.79;53.67;102975.00;2097522;28;20176;-72
2022/03/23 02:13:02;;;;;;;15.88;6.53;;;;;;;4.25;54.14;103050.97;2091946;28;20237;-72
2022/03/23 02:14:03;;;;;;;16.15;5.70;;;;;;;4.01;54.08;102999.41;2088017;28;20192;-72
2022/03/23 02:15:29;;;;;;;13.00;6.37;;;;;;;4.22;54.01;103037.88;2088787;28;20229;-72
2022/03/23 02:16:37;;;;;;;20.90;7.93;;;;;;;4.25;55.10;103029.00;2089082;28;20555;-72
2022/03/23 02:17:38;;;;;;;14.00;6.43;;;;;;;4.27;53.66;103030.25;2089152;28;20169;-72
2022/03/23 02:18:39;;;;;;;13.50;6.27;;;;;;;4.28;53.83;103029.16;2089198;28;20177;-72
2022/03/23 02:19:39;;;;;;;14.53;5.90;;;;;;;4.32;53.10;103037.50;2089342;28;20185;-72
2022/03/23 02:20:40;;;;;;;12.87;6.63;;;;;;;3.18;53.19;102851.44;2097424;28;20207;-72
2022/03/23 02:21:44;;;;;;;13.80;6.20;;;;;;;4.34;53.28;103037.97;2097292;28;20758;-72
2022/03/23 02:22:45;;;;;;;23.10;7.15;;;;;;;3.91;53.16;102964.13;2096976;28;20237;-72
2022/03/23 02:23:45;;;;;;;24.70;7.67;;;;;;;3.24;53.00;102872.81;2096369;28;20187;-72
2022/03/23 02:24:48;;;;;;;19.13;6.40;;;;;;;4.32;52.87;103037.50;2096790;28;20176;-72
2022/03/23 02:25:50;;;;;;;13.60;6.50;;;;;;;4.30;53.30;103046.06;2097422;28;20180;-72
2022/03/23 02:26:51;;;;;;;17.15;6.53;;;;;;;4.30;52.41;103035.09;2097557;28;20584;-72
2022/03/23 02:27:52;;;;;;;13.73;5.87;;;;;;;4.26;52.11;103036.09;2097099;28;20176;-72
2022/03/23 02:28:53;;;;;;;14.32;5.53;;;;;;;4.24;51.71;103038.34;2097611;28;20665;-72
2022/03/23 02:29:54;;;;;;;12.57;6.00;;;;;;;4.17;52.08;103043.56;2097380;28;20572;-72
2022/03/23 02:30:55;;;;;;;14.80;5.57;;;;;;;4.12;52.06;103036.34;2097481;28;20206;-72
2022/03/23 02:31:56;;;;;;;17.47;6.40;;;;;;;4.07;51.65;103044.75;2097032;28;20183;-72
2022/03/23 02:33:00;;;;;;;16.23;6.38;;;;;;;3.35;52.07;102928.91;2097008;28;20175;-72
2022/03/23 02:34:01;;;;;;;19.08;7.25;;;;;;;3.98;52.77;103037.69;2096667;28;20276;-72
2022/03/23 02:35:03;;;;;;;36.57;8.70;;;;;;;3.98;53.53;103035.75;2097531;28;20176;-72
2022/03/23 02:36:05;;;;;;;21.23;7.70;;;;;;;3.98;53.08;103030.25;2097385;28;20180;-72
2022/03/23 02:37:07;;;;;;;21.98;6.82;;;;;;;3.96;53.04;103046.22;2097292;28;20175;-72
2022/03/23 02:38:08;;;;;;;23.30;6.78;;;;;;;3.91;53.65;103040.94;2097096;28;20176;-72
2022/03/23 02:39:08;;;;;;;16.63;6.50;;;;;;;3.88;53.74;103038.03;2096904;28;20665;-72
2022/03/23 02:40:10;;;;;;;14.67;6.20;;;;;;;3.89;53.78;103034.16;2096636;28;20203;-72
2022/03/23 02:41:11;;;;;;;10.50;5.70;;;;;;;3.91;54.13;103034.66;2097416;28;20233;-72
2022/03/23 02:42:11;;;;;;;16.23;6.23;;;;;;;3.78;53.79;103031.00;2096729;28;20183;-72
2022/03/23 02:43:13;;;;;;;14.73;6.27;;;;;;;3.71;53.47;103024.41;2097456;28;20199;-72
2022/03/23 02:44:17;;;;;;;15.85;6.38;;;;;;;3.75;53.41;103044.56;2096758;28;20182;-72
2022/03/23 02:45:18;;;;;;;15.88;7.10;;;;;;;3.74;54.50;103038.25;2097511;28;20209;-72
2022/03/23 02:46:20;;;;;;;16.92;6.28;;;;;;;3.74;54.18;103040.22;2097205;28;20260;-72
2022/03/23 02:47:20;;;;;;;15.38;6.22;;;;;;;3.73;53.52;103035.84;2097203;28;20230;-72
2022/03/23 02:48:21;;;;;;;14.70;6.20;;;;;;;3.71;53.27;103036.19;2096461;28;20219;-72
2022/03/23 02:49:22;;;;;;;15.83;6.10;;;;;;;3.66;53.62;103036.38;2096808;28;20258;-72
2022/03/23 02:50:24;;;;;;;16.48;6.15;;;;;;;3.66;54.17;103030.88;2097333;28;20236;-72
2022/03/23 02:51:24;;;;;;;18.65;7.28;;;;;;;3.68;55.08;103034.09;2096579;28;20191;-72
2022/03/23 02:52:25;;;;;;;18.30;7.20;;;;;;;3.66;55.26;103036.38;2096094;28;20218;-72
2022/03/23 03:02:21;;;;;;;17.77;6.65;;;;;;;3.82;53.86;103031.13;2097069;28;20187;-72
2022/03/23 03:03:22;;;;;;;11.93;5.55;;;;;;;3.77;53.87;103037.63;2097564;28;20474;-72
2022/03/23 03:04:24;;;;;;;15.03;6.53;;;;;;;3.50;53.90;102991.41;2096591;28;20608;-72
2022/03/23 03:05:24;;;;;;;19.92;6.95;;;;;;;3.76;54.41;103029.72;2097403;28;20183;-72
2022/03/23 03:06:25;;;;;;;22.23;9.57;;;;;;;3.75;55.38;103028.91;2097233;28;20179;-71
2022/03/23 03:07:25;;;;;;;20.57;9.57;;;;;;;3.75;55.68;103034.38;2096773;28;20573;-72
2022/03/23 03:09:46;;;;;;;22.45;10.10;;;;;;;3.72;57.40;103040.53;2097238;28;20160;-72
2022/03/23 03:10:46;;;;;;;21.35;9.77;;;;;;;3.72;56.81;103029.56;2097330;28;20188;-72
2022/03/23 03:11:48;;;;;;;20.40;9.13;;;;;;;3.76;57.03;103026.97;2096926;28;20207;-72
2022/03/23 03:12:50;;;;;;;21.25;9.48;;;;;;;3.73;56.94;103036.66;2096740;28;20199;-72
2022/03/23 03:13:51;;;;;;;20.50;9.73;;;;;;;3.01;56.85;102915.31;2096711;28;20266;-72
2022/03/23 03:14:52;;;;;;;18.02;9.73;;;;;;;3.77;56.90;103036.81;2097217;28;20258;-72
2022/03/23 03:15:52;;;;;;;17.17;7.80;;;;;;;3.77;56.63;103034.88;2097104;28;20194;-72
2022/03/23 03:16:53;;;;;;;19.33;8.03;;;;;;;3.82;55.60;103034.69;2097331;28;20179;-72
2022/03/23 03:17:59;;;;;;;18.80;7.90;;;;;;;3.84;55.05;103040.66;2096966;28;20624;-72
2022/03/23 03:18:59;;;;;;;20.90;8.23;;;;;;;3.75;55.26;103014.41;2097237;28;20250;-72
2022/03/23 03:20:00;;;;;;;29.00;9.10;;;;;;;3.36;55.09;102944.22;2096821;28;20250;-72
2022/03/23 03:21:06;;;;;;;22.33;9.37;;;;;;;3.88;54.93;103032.56;2097232;28;20179;-72
2022/03/23 03:22:07;;;;;;;30.13;10.18;;;;;;;3.90;54.98;103033.06;2096461;28;20163;-72
2022/03/23 03:23:11;;;;;;;30.17;9.63;;;;;;;3.87;54.93;103037.25;2097096;28;20649;-72
2022/03/23 03:24:11;;;;;;;20.83;9.20;;;;;;;3.92;55.94;103028.03;2096501;28;20176;-71
2022/03/23 03:25:16;;;;;;;20.53;8.73;;;;;;;3.90;56.09;103028.34;2097261;28;20663;-72
2022/03/23 03:26:17;;;;;;;23.67;8.55;;;;;;;3.77;55.91;103001.16;2097110;28;20179;-72
2022/03/23 03:27:18;;;;;;;20.45;8.23;;;;;;;3.72;55.37;102985.69;2097211;28;20184;-71
2022/03/23 03:28:18;;;;;;;17.00;7.83;;;;;;;4.00;54.13;103033.47;2096830;28;20207;-72
2022/03/23 03:29:19;;;;;;;18.47;8.30;;;;;;;2.81;53.96;102836.56;2097182;28;20262;-71
2022/03/23 03:30:20;;;;;;;18.23;8.20;;;;;;;4.01;54.53;103035.06;2097064;28;20183;-72
2022/03/23 03:31:20;;;;;;;16.98;7.93;;;;;;;3.81;54.25;103011.16;2096709;28;20301;-72
2022/03/23 03:32:21;;;;;;;17.10;8.70;;;;;;;3.94;54.24;103031.22;2096392;28;20296;-72
2022/03/23 03:33:22;;;;;;;23.97;8.70;;;;;;;3.90;54.07;103033.84;2097202;28;20210;-72
2022/03/23 03:34:22;;;;;;;21.93;8.67;;;;;;;3.84;54.18;103029.66;2096571;28;20175;-72
2022/03/23 03:35:23;;;;;;;21.77;8.60;;;;;;;3.82;53.71;103028.38;2097167;28;20617;-72
2022/03/23 03:36:24;;;;;;;17.83;8.30;;;;;;;3.82;53.69;103025.66;2097034;28;20249;-72
2022/03/23 03:37:25;;;;;;;18.45;7.07;;;;;;;3.68;53.27;103047.00;2096893;28;20186;-71
2022/03/23 03:38:27;;;;;;;15.80;7.47;;;;;;;2.62;52.97;102866.25;2096920;28;20582;-71
2022/03/23 03:39:28;;;;;;;13.85;7.00;;;;;;;3.63;53.40;103028.78;2097200;28;20175;-72
2022/03/23 03:40:28;;;;;;;16.30;6.90;;;;;;;3.07;52.97;102952.34;2096941;28;20233;-72
2022/03/23 03:41:29;;;;;;;14.37;6.30;;;;;;;3.56;52.77;103036.72;2097119;28;20225;-72
2022/03/23 03:42:30;;;;;;;18.50;7.10;;;;;;;3.45;52.96;103038.19;2096493;28;20661;-72
2022/03/23 03:43:31;;;;;;;15.13;7.32;;;;;;;2.90;53.95;102981.69;2096963;28;20187;-72
2022/03/23 03:44:32;;;;;;;18.10;8.07;;;;;;;3.35;54.30;103030.31;2096373;28;20189;-71
2022/03/23 03:45:32;;;;;;;12.30;7.60;;;;;;;3.30;54.76;103032.41;2097198;28;20203;-72
2022/03/23 03:46:33;;;;;;;15.67;7.10;;;;;;;3.17;54.84;103012.28;2096945;28;20920;-72
2022/03/23 03:47:34;;;;;;;15.20;7.60;;;;;;;3.13;55.25;103011.31;2096978;28;20466;-72
2022/03/23 03:48:35;;;;;;;17.83;7.27;;;;;;;3.24;55.76;103036.47;2096926;28;20210;-71
2022/03/23 03:49:38;;;;;;;17.08;7.43;;;;;;;3.19;55.37;103031.94;2097118;28;20233;-72
2022/03/23 03:50:41;;;;;;;15.35;7.45;;;;;;;3.17;55.85;103034.22;2096973;28;20664;-72
2022/03/23 03:51:42;;;;;;;21.45;7.93;;;;;;;2.46;55.31;102919.09;2097097;28;20245;-72
2022/03/23 03:52:43;;;;;;;18.40;7.32;;;;;;;3.15;55.69;103030.19;2096323;28;20279;-72
2022/03/23 03:53:43;;;;;;;13.10;6.77;;;;;;;3.15;55.49;103032.91;2096602;28;20182;-72
2022/03/23 03:54:44;;;;;;;16.07;7.30;;;;;;;3.13;55.93;103024.22;2096925;28;20558;-72
2022/03/23 03:55:45;;;;;;;17.92;7.72;;;;;;;2.03;55.84;102855.34;2096161;28;20220;-72
2022/03/23 03:56:45;;;;;;;19.90;8.07;;;;;;;3.13;56.02;103030.50;2096470;28;20276;-72
2022/03/23 03:57:47;;;;;;;21.60;8.13;;;;;;;3.11;55.80;103027.28;2096807;28;20258;-71
2022/03/23 03:58:48;;;;;;;23.17;7.95;;;;;;;2.99;55.25;103007.94;2096985;28;20172;-72
2022/03/23 03:59:49;;;;;;;20.00;7.78;;;;;;;3.06;54.96;103015.69;2096969;28;20191;-72
2022/03/23 04:00:49;;;;;;;20.20;7.83;;;;;;;3.09;54.82;103029.53;2097141;28;20213;-72
2022/03/23 04:01:50;;;;;;;24.47;8.77;;;;;;;3.11;55.45;103031.94;2096952;28;20186;-72
2022/03/23 04:02:51;;;;;;;22.43;8.00;;;;;;;3.00;55.18;103022.47;2096484;28;20247;-72
2022/03/23 04:03:52;;;;;;;18.55;7.65;;;;;;;1.77;54.93;102817.06;2096352;28;20679;-72
2022/03/23 04:04:52;;;;;;;17.67;7.67;;;;;;;3.14;55.11;103032.09;2097026;28;20597;-72
2022/03/23 04:05:53;;;;;;;17.53;7.13;;;;;;;3.14;55.23;103034.06;2096894;28;20183;-72
2022/03/23 04:06:53;;;;;;;17.53;7.90;;;;;;;3.09;55.70;103021.31;2097044;28;20180;-72
2022/03/23 04:07:55;;;;;;;15.80;7.80;;;;;;;3.09;55.96;103017.78;2096520;28;20650;-72
2022/03/23 04:08:56;;;;;;;17.75;7.18;;;;;;;3.17;55.90;103030.66;2096913;28;20186;-72
2022/03/23 04:09:56;;;;;;;16.10;7.33;;;;;;;3.19;55.25;103037.41;2096988;28;20214;-72
2022/03/23 04:10:57;;;;;;;14.97;8.27;;;;;;;3.22;56.37;103038.69;2097032;28;20664;-72
2022/03/23 04:11:57;;;;;;;16.37;8.17;;;;;;;2.06;56.06;102860.97;2096891;28;20625;-72
2022/03/23 04:12:58;;;;;;;17.93;8.17;;;;;;;3.26;56.25;103031.44;2096297;28;20194;-72
2022/03/23 04:13:58;;;;;;;17.27;7.60;;;;;;;3.25;56.04;103032.59;2096461;28;20191;-72
2022/03/23 04:14:59;;;;;;;22.87;7.43;;;;;;;3.28;55.66;103031.94;2097043;28;20657;-72
2022/03/23 04:15:59;;;;;;;14.40;7.43;;;;;;;3.13;56.30;103002.31;2096868;28;20728;-72
2022/03/23 04:17:00;;;;;;;18.07;7.70;;;;;;;3.33;56.13;103031.78;2097249;28;20179;-72
2022/03/23 04:18:00;;;;;;;20.30;7.70;;;;;;;3.36;56.97;103033.84;2096701;28;20195;-72
2022/03/23 04:19:03;;;;;;;13.50;7.13;;;;;;;2.93;56.63;102973.63;2097026;28;20172;-72
2022/03/23 04:20:04;;;;;;;16.48;7.63;;;;;;;3.33;57.24;103037.25;2096623;28;20230;-72
2022/03/23 04:21:05;;;;;;;15.15;6.72;;;;;;;3.20;57.10;103006.16;2096990;28;20176;-72
2022/03/23 04:22:05;;;;;;;15.00;6.73;;;;;;;3.27;56.94;103011.94;2096515;28;20202;-72
2022/03/23 04:23:06;;;;;;;12.97;6.30;;;;;;;2.87;56.95;102939.34;2096167;28;20252;-71
2022/03/23 04:24:07;;;;;;;13.93;6.63;;;;;;;2.37;57.17;102871.75;2095566;28;20245;-72
2022/03/23 04:25:10;;;;;;;13.45;6.57;;;;;;;3.45;56.68;103037.38;2097030;28;20661;-73
2022/03/23 04:26:10;;;;;;;13.05;6.65;;;;;;;3.34;57.29;103014.19;2096833;28;20183;-72
2022/03/23 04:27:11;;;;;;;17.23;6.97;;;;;;;3.49;57.12;103033.66;2097009;28;20176;-72
2022/03/23 04:28:12;;;;;;;18.33;6.88;;;;;;;3.50;56.56;103040.75;2096589;28;20230;-72
2022/03/23 04:29:13;;;;;;;19.97;7.87;;;;;;;3.50;56.86;103034.47;2097108;28;20646;-72
2022/03/23 04:30:15;;;;;;;14.23;7.40;;;;;;;1.09;56.82;102642.09;2096918;28;20251;-72
2022/03/23 04:31:15;;;;;;;12.30;7.35;;;;;;;3.53;57.12;103040.09;2096944;28;20217;-72
2022/03/23 04:32:16;;;;;;;14.43;7.20;;;;;;;3.51;56.90;103034.16;2096372;28;20199;-71
2022/03/23 04:33:16;;;;;;;13.40;6.97;;;;;;;3.54;56.98;103044.44;2096788;28;20175;-72
2022/03/23 04:34:17;;;;;;;12.53;6.60;;;;;;;3.26;56.97;102995.81;2095553;28;20274;-72
2022/03/23 04:35:21;;;;;;;12.00;6.43;;;;;;;3.61;56.94;103036.53;2088005;28;20194;-72
2022/03/23 04:36:22;;;;;;;13.52;6.45;;;;;;;3.10;56.96;102968.16;2096247;28;20187;-71
2022/03/23 04:37:23;;;;;;;14.38;6.50;;;;;;;3.59;56.79;103024.28;2096756;28;20264;-72
2022/03/23 04:38:23;;;;;;;11.10;6.00;;;;;;;3.69;56.88;103035.69;2096780;28;20179;-72
2022/03/23 04:39:24;;;;;;;13.33;6.57;;;;;;;3.69;56.49;103034.91;2096873;28;20176;-72
2022/03/23 04:40:25;;;;;;;12.67;5.67;;;;;;;2.22;56.50;102788.22;2096768;28;20195;-72
2022/03/23 04:41:26;;;;;;;17.63;6.23;;;;;;;3.78;56.19;103027.44;2096955;28;20188;-72
2022/03/23 04:42:26;;;;;;;10.43;5.90;;;;;;;3.71;56.43;103010.69;2096328;28;20340;-72
2022/03/23 04:43:27;;;;;;;14.03;6.03;;;;;;;3.73;56.30;103020.19;2097405;28;20951;-72
2022/03/23 04:44:28;;;;;;;15.37;6.30;;;;;;;2.23;56.18;102783.56;2097698;28;20696;-72
2022/03/23 04:45:28;;;;;;;20.50;6.27;;;;;;;3.79;56.58;103029.84;2098647;28;20556;-72
2022/03/23 04:46:29;;;;;;;14.87;6.27;;;;;;;3.82;56.26;103040.19;2098249;28;20171;-71
2022/03/23 04:47:30;;;;;;;13.90;6.63;;;;;;;3.07;56.06;102913.19;2098263;28;20668;-72
2022/03/23 04:48:30;;;;;;;14.87;6.23;;;;;;;3.70;56.24;103007.13;2098501;28;20417;-72
2022/03/23 04:49:31;;;;;;;14.60;6.17;;;;;;;3.88;56.32;103027.06;2098418;28;20176;-72
2022/03/23 04:50:31;;;;;;;15.17;6.57;;;;;;;3.90;56.55;103033.84;2098331;28;20187;-72
2022/03/23 04:51:32;;;;;;;12.47;6.30;;;;;;;3.93;56.11;103037.84;2098394;28;20606;-72
2022/03/23 04:52:33;;;;;;;11.13;6.17;;;;;;;3.91;56.41;103048.38;2096997;28;20179;-72
2022/03/23 04:53:33;;;;;;;11.60;6.53;;;;;;;3.96;56.06;103028.97;2097605;28;20179;-72
2022/03/23 04:54:34;;;;;;;12.17;6.80;;;;;;;3.83;55.87;103008.06;2097447;28;20625;-72